Gulfport Biloxi International Airport
KGPT : now visible

Airfield :











YOU CAN JOIN US ON...

 
LOGIN :

Register | Disclaimer

   EN    FR    IT 

 









Legend :    VFR   Marginal VFR   IFR   Intensive IFR   Very Intensive IFR
Visi :
Ceiling :
>= 8 km
>= 3000ft
5 to 8 km
1000 to 3000 ft
1500m to 5 km
500 to 1000 ft
800 to 1500m
200 to 500 ft
< 800m
< 200 ft
Symbols :   Thunderstorms  Fog  Heavy snow  Heavy precipitations  Wind > 20 kt







- Airport Elevation : 28 ft
- IATA code : GPT


KGPT - Gulfport Biloxi International

CURRENT METAR :
  • 212053Z 14013KT 10SM FEW024 BKN060 OVC090 28/22 A3011 RMK AO2 SLP196 T02830217 56016

EXPIRED METARs :
  • 211953Z 12015G23KT 10SM FEW022 BKN090 30/22 A3012 RMK AO2 PK WND 13027/1905 SLP200 T03000222
  • 211853Z 12014KT 10SM BKN085 31/20 A3014 RMK AO2 SLP205 T03110200

TAF KGPT
Valid from the 21 at 18:00 until the 22 at 18:00 UTC


211744Z 2118/2218 11014KT P6SM VCSH FEW045 OVC050
FM212300 13009KT P6SM FEW030 SCT110
FM220500 11007KT P6SM FEW045 FEW250
FM221100 09006KT P6SM FEW025 FEW070
FM221600 13011KT P6SM FEW250
No reported NOTAMs for that airfield.



MET'MAP, your aeronautical weather chart ! - Copyright ORBIFLY December 2007 - Disclaimer

ORBIFLY MET'MAP TEAM :

Programming & Development : Alexandra Zaïnal
Concept & Development : Baudouin d'Aumeries
Co-Development & Prog : Marc-Olivier Méhu
Technical & hardware support : Manuel Goepfert

Contact : metmap@orbifly.com




SOURCES & CREDITS :

   NOAA       Earth
Advisory